Time,TemperatureF,DewpointF,PressureIn,WindDirection,WindDirectionDegrees,WindSpeedMPH,WindSpeedGustMPH,Humidity,HourlyPrecipIn,Conditions,Clouds,dailyrainin,SoftwareType,DateUTC
2013-10-28 00:01:00,34.0,26.0,-100.00,South,175,6.0,12.0,72,0.00,,,-99.99,,2013-10-28 07:01:00,
2013-10-28 00:12:00,34.0,26.0,-100.00,South,175,6.0,12.0,72,0.00,,,-99.99,,2013-10-28 07:12:00,
2013-10-28 00:21:00,34.0,26.0,-100.00,South,175,6.0,12.0,72,0.00,,,-99.99,,2013-10-28 07:21:00,
2013-10-28 00:42:00,36.0,27.0,-100.00,WSW,248,7.0,13.0,70,0.00,,,-99.99,,2013-10-28 07:42:00,
2013-10-28 01:12:00,37.0,26.0,-100.00,SSW,205,5.0,11.0,63,0.00,,,-99.99,,2013-10-28 08:12:00,
2013-10-28 01:22:00,37.0,24.0,-100.00,SSW,209,4.0,7.0,60,0.00,,,-99.99,,2013-10-28 08:22:00,
2013-10-28 01:32:00,37.0,24.0,-100.00,SSW,209,4.0,7.0,60,0.00,,,-99.99,,2013-10-28 08:32:00,
2013-10-28 02:11:00,34.0,25.0,-100.00,WNW,282,2.0,5.0,68,0.00,,,-99.99,,2013-10-28 09:11:00,
2013-10-28 02:21:00,34.0,25.0,-100.00,South,169,3.0,8.0,70,0.00,,,-99.99,,2013-10-28 09:21:00,
2013-10-28 02:33:00,34.0,25.0,-100.00,South,169,3.0,8.0,70,0.00,,,-99.99,,2013-10-28 09:33:00,
2013-10-28 03:13:00,31.0,25.0,-100.00,WSW,257,9.0,15.0,77,3.00,,,-99.99,,2013-10-28 10:13:00,
2013-10-28 03:23:00,29.0,23.0,-100.00,West,260,5.0,7.0,79,3.00,,,-99.99,,2013-10-28 10:23:00,
2013-10-28 03:33:00,29.0,23.0,-100.00,West,260,5.0,7.0,79,3.00,,,-99.99,,2013-10-28 10:33:00,
2013-10-28 03:43:00,29.0,23.0,-100.00,West,260,5.0,7.0,79,4.00,,,-99.99,,2013-10-28 10:43:00,
2013-10-28 03:53:00,28.0,22.0,-100.00,WSW,253,7.0,15.0,79,4.00,,,-99.99,,2013-10-28 10:53:00,
2013-10-28 04:12:00,29.0,24.0,-100.00,West,268,8.0,13.0,80,2.00,,,-99.99,,2013-10-28 11:12:00,
2013-10-28 04:22:00,29.0,24.0,-100.00,West,268,8.0,13.0,80,2.00,,,-99.99,,2013-10-28 11:22:00,
2013-10-28 04:42:00,27.0,22.0,-100.00,West,274,11.0,20.0,80,3.00,,,-99.99,,2013-10-28 11:42:00,
2013-10-28 04:52:00,27.0,22.0,-100.00,SSW,193,4.0,7.0,80,3.00,,,-99.99,,2013-10-28 11:52:00,
2013-10-28 05:11:00,27.0,22.0,-100.00,South,181,3.0,6.0,80,0.00,,,-99.99,,2013-10-28 12:11:00,
2013-10-28 05:21:00,27.0,22.0,-100.00,South,181,3.0,6.0,80,0.00,,,-99.99,,2013-10-28 12:21:00,
2013-10-28 05:42:00,26.0,21.0,-100.00,SSW,198,4.0,7.0,80,0.00,,,-99.99,,2013-10-28 12:42:00,
2013-10-28 05:52:00,26.0,21.0,-100.00,South,179,5.0,9.0,80,0.00,,,-99.99,,2013-10-28 12:52:00,
2013-10-28 06:01:00,26.0,21.0,-100.00,South,179,5.0,9.0,80,0.00,,,-99.99,,2013-10-28 13:01:00,
2013-10-28 06:21:00,26.0,21.0,-100.00,South,179,3.0,5.0,80,0.00,,,-99.99,,2013-10-28 13:21:00,
2013-10-28 06:41:00,27.0,22.0,-100.00,South,185,6.0,10.0,80,0.00,,,-99.99,,2013-10-28 13:41:00,
2013-10-28 06:52:00,26.0,20.0,-100.00,SSE,167,5.0,10.0,79,0.00,,,-99.99,,2013-10-28 13:52:00,
2013-10-28 07:02:00,26.0,20.0,-100.00,SSE,167,5.0,10.0,79,0.00,,,-99.99,,2013-10-28 14:02:00,
2013-10-28 07:11:00,26.0,20.0,-100.00,SSE,167,5.0,10.0,79,0.00,,,-99.99,,2013-10-28 14:11:00,
2013-10-28 07:21:00,27.0,21.0,-100.00,SSW,193,4.0,9.0,79,0.00,,,-99.99,,2013-10-28 14:21:00,
2013-10-28 07:32:00,27.0,21.0,-100.00,SSW,193,4.0,9.0,79,0.00,,,-99.99,,2013-10-28 14:32:00,
2013-10-28 08:11:00,27.0,21.0,-100.00,South,188,5.0,11.0,79,0.00,,,-99.99,,2013-10-28 15:11:00,
2013-10-28 08:21:00,27.0,21.0,-100.00,South,188,4.0,8.0,79,0.00,,,-99.99,,2013-10-28 15:21:00,
2013-10-28 08:43:00,28.0,22.0,-100.00,South,189,5.0,12.0,78,0.00,,,-99.99,,2013-10-28 15:43:00,
2013-10-28 09:13:00,28.0,22.0,-100.00,SSW,212,3.0,6.0,78,1.00,,,-99.99,,2013-10-28 16:13:00,
2013-10-28 09:23:00,28.0,22.0,-100.00,SSW,209,5.0,11.0,78,1.00,,,-99.99,,2013-10-28 16:23:00,
2013-10-28 09:43:00,28.0,22.0,-100.00,SW,224,5.0,9.0,78,0.00,,,-99.99,,2013-10-28 16:43:00,
2013-10-28 10:12:00,29.0,23.0,-100.00,SSW,208,4.0,6.0,78,0.00,,,-99.99,,2013-10-28 17:12:00,
2013-10-28 10:22:00,29.0,23.0,-100.00,SW,226,4.0,6.0,78,0.00,,,-99.99,,2013-10-28 17:22:00,
2013-10-28 10:42:00,29.0,23.0,-100.00,SW,223,4.0,9.0,78,0.00,,,-99.99,,2013-10-28 17:42:00,
2013-10-28 10:52:00,30.0,23.0,-100.00,South,188,8.0,13.0,76,0.00,,,-99.99,,2013-10-28 17:52:00,
2013-10-28 11:02:00,30.0,23.0,-100.00,South,188,8.0,13.0,76,0.00,,,-99.99,,2013-10-28 18:02:00,
2013-10-28 11:21:00,32.0,25.0,-100.00,SSW,200,6.0,11.0,75,0.00,,,-99.99,,2013-10-28 18:21:00,
2013-10-28 11:42:00,32.0,24.0,-100.00,SSW,205,5.0,10.0,72,0.00,,,-99.99,,2013-10-28 18:42:00,
2013-10-28 11:52:00,33.0,24.0,-100.00,SSW,202,8.0,13.0,69,0.00,,,-99.99,,2013-10-28 18:52:00,
2013-10-28 12:01:00,33.0,24.0,-100.00,SSW,202,8.0,13.0,69,0.00,,,-99.99,,2013-10-28 19:01:00,
2013-10-28 12:21:00,35.0,26.0,-100.00,SW,224,6.0,15.0,68,0.00,,,-99.99,,2013-10-28 19:21:00,
2013-10-28 12:42:00,36.0,26.0,-100.00,SSW,210,4.0,9.0,67,0.00,,,-99.99,,2013-10-28 19:42:00,
2013-10-28 12:52:00,36.0,26.0,-100.00,SSW,210,4.0,9.0,67,0.00,,,-99.99,,2013-10-28 19:52:00,
2013-10-28 13:02:00,36.0,26.0,-100.00,SSW,210,4.0,9.0,67,0.00,,,-99.99,,2013-10-28 20:02:00,
2013-10-28 13:21:00,35.0,25.0,-100.00,SSW,212,8.0,15.0,66,0.00,,,-99.99,,2013-10-28 20:21:00,
2013-10-28 13:42:00,36.0,24.0,-100.00,SW,216,5.0,10.0,62,0.00,,,-99.99,,2013-10-28 20:42:00,
2013-10-28 14:11:00,37.0,24.0,-100.00,SSW,212,6.0,12.0,59,0.00,,,-99.99,,2013-10-28 21:11:00,
2013-10-28 14:21:00,36.0,23.0,-100.00,South,188,8.0,13.0,60,0.00,,,-99.99,,2013-10-28 21:21:00,
2013-10-28 14:34:00,36.0,23.0,-100.00,South,188,8.0,13.0,60,0.00,,,-99.99,,2013-10-28 21:34:00,
2013-10-28 15:13:00,38.0,25.0,-100.00,SSW,202,5.0,10.0,58,0.00,,,-99.99,,2013-10-28 22:13:00,
2013-10-28 15:23:00,38.0,24.0,-100.00,SSW,202,4.0,9.0,56,0.00,,,-99.99,,2013-10-28 22:23:00,
2013-10-28 15:43:00,37.0,23.0,-100.00,SSW,200,6.0,11.0,57,0.00,,,-99.99,,2013-10-28 22:43:00,
2013-10-28 16:12:00,36.0,23.0,-100.00,SSW,199,6.0,10.0,58,0.00,,,-99.99,,2013-10-28 23:12:00,
2013-10-28 16:22:00,36.0,23.0,-100.00,SSW,199,6.0,10.0,58,0.00,,,-99.99,,2013-10-28 23:22:00,
2013-10-28 16:42:00,36.0,23.0,-100.00,South,174,4.0,9.0,58,0.00,,,-99.99,,2013-10-28 23:42:00,
2013-10-28 16:52:00,35.0,22.0,-100.00,SSW,199,5.0,11.0,59,0.00,,,-99.99,,2013-10-28 23:52:00,
2013-10-28 17:11:00,35.0,23.0,-100.00,SSW,196,6.0,11.0,60,0.00,,,-99.99,,2013-10-29 00:11:00,
2013-10-28 17:21:00,35.0,23.0,-100.00,SSW,196,6.0,11.0,60,0.00,,,-99.99,,2013-10-29 00:21:00,
2013-10-28 17:42:00,34.0,21.0,-100.00,South,189,7.0,15.0,58,0.00,,,-99.99,,2013-10-29 00:42:00,
2013-10-28 17:52:00,34.0,21.0,-100.00,South,188,8.0,17.0,58,0.00,,,-99.99,,2013-10-29 00:52:00,
2013-10-28 18:11:00,34.0,22.0,-100.00,SSW,202,9.0,14.0,60,0.00,,,-99.99,,2013-10-29 01:11:00,
2013-10-28 18:21:00,34.0,22.0,-100.00,SSW,202,9.0,14.0,60,0.00,,,-99.99,,2013-10-29 01:21:00,
2013-10-28 18:31:00,34.0,22.0,-100.00,SSW,202,9.0,14.0,60,0.00,,,-99.99,,2013-10-29 01:31:00,
2013-10-28 18:53:00,33.0,21.0,-100.00,SW,220,4.0,11.0,61,0.00,,,-99.99,,2013-10-29 01:53:00,
2013-10-28 19:02:00,33.0,21.0,-100.00,SW,220,4.0,11.0,61,0.00,,,-99.99,,2013-10-29 02:02:00,
2013-10-28 19:21:00,34.0,22.0,-100.00,SW,219,5.0,10.0,60,0.00,,,-99.99,,2013-10-29 02:21:00,
2013-10-28 19:44:00,34.0,22.0,-100.00,West,263,1.0,3.0,60,0.00,,,-99.99,,2013-10-29 02:44:00,
2013-10-28 20:14:00,35.0,23.0,-100.00,South,186,4.0,7.0,60,0.00,,,-99.99,,2013-10-29 03:14:00,
2013-10-28 20:27:00,35.0,22.0,-100.00,South,179,5.0,11.0,59,0.00,,,-99.99,,2013-10-29 03:27:00,
2013-10-28 20:40:00,-999.0,-99.9,-100.00,SW,220,5.0,7.0,59,0.00,,,-99.99,,2013-10-29 03:40:00,
2013-10-28 20:47:00,35.0,22.0,-100.00,SW,220,5.0,7.0,59,0.00,,,-99.99,,2013-10-29 03:47:00,
2013-10-28 21:13:00,35.0,22.0,-100.00,South,174,6.0,11.0,59,0.00,,,-99.99,,2013-10-29 04:13:00,
2013-10-28 21:24:00,35.0,23.0,-100.00,SSW,199,7.0,14.0,60,0.00,,,-99.99,,2013-10-29 04:24:00,
2013-10-28 21:43:00,34.0,22.0,-100.00,SSW,195,10.0,15.0,61,0.00,,,-99.99,,2013-10-29 04:43:00,
2013-10-28 22:18:00,34.0,22.0,-100.00,South,182,8.0,17.0,62,0.00,,,-99.99,,2013-10-29 05:18:00,
2013-10-28 22:45:00,33.0,22.0,-100.00,South,185,6.0,13.0,64,0.00,,,-99.99,,2013-10-29 05:45:00,
2013-10-28 22:52:00,33.0,22.0,-100.00,South,185,6.0,13.0,64,0.00,,,-99.99,,2013-10-29 05:52:00,
2013-10-28 23:06:00,33.0,22.0,-100.00,South,185,6.0,13.0,64,0.00,,,-99.99,,2013-10-29 06:06:00,
2013-10-28 23:25:00,33.0,23.0,-100.00,South,184,5.0,10.0,65,0.00,,,-99.99,,2013-10-29 06:25:00,
2013-10-28 23:43:00,34.0,22.0,-100.00,SSW,200,6.0,11.0,62,0.00,,,-99.99,,2013-10-29 06:43:00,
2013-10-28 23:52:00,34.0,22.0,-100.00,SSW,192,8.0,14.0,62,0.00,,,-99.99,,2013-10-29 06:52:00,